Time;durP1;ratioP1;P1;durP2;ratioP2;P2;SDS_P1;SDS_P2;PMS_P1;PMS_P2;Temp;Humidity;BMP_temperature;BMP_pressure;BME280_temperature;BME280_humidity;BME280_pressure;Samples;Min_cycle;Max_cycle;Signal;HPM_P1;HPM_P2
2023/10/21 00:01:56;;;;;;;0.53;0.53;;;17.00;66.10;15.90;94134.00;;;;4974120;28;20218;-87
2023/10/21 00:04:24;;;;;;;0.40;0.40;;;17.00;66.20;15.80;94139.00;;;;4975559;28;20204;-87
2023/10/21 00:06:51;;;;;;;1.80;0.53;;;16.90;66.10;15.80;94146.00;;;;4976041;28;20208;-87
2023/10/21 00:09:19;;;;;;;0.40;0.40;;;16.90;66.10;15.70;94143.00;;;;4975799;28;20282;-88
2023/10/21 00:11:46;;;;;;;1.03;0.70;;;16.80;66.10;15.70;94151.00;;;;4975773;28;20250;-89
2023/10/21 00:14:15;;;;;;;1.00;0.60;;;16.80;66.10;15.60;94153.00;;;;4975436;28;20310;-88
2023/10/21 00:16:42;;;;;;;0.60;0.60;;;16.70;66.20;15.60;94159.00;;;;4976095;28;20229;-88
2023/10/21 00:19:10;;;;;;;1.53;0.63;;;16.70;66.20;15.50;94165.00;;;;4975468;28;20349;-88
2023/10/21 00:21:38;;;;;;;0.47;0.47;;;16.60;66.10;15.50;94164.00;;;;4976110;28;20211;-89
2023/10/21 00:24:08;;;;;;;0.50;0.50;;;16.60;66.20;15.40;94162.00;;;;4975164;28;20227;-88
2023/10/21 00:26:47;;;;;;;0.60;0.60;;;16.60;66.40;15.40;94166.00;;;;4975266;28;20199;-88
2023/10/21 00:29:15;;;;;;;0.70;0.60;;;16.50;66.60;15.30;94164.00;;;;4975396;28;20680;-89
2023/10/21 00:31:43;;;;;;;1.13;0.50;;;16.50;66.60;15.30;94168.00;;;;4975271;28;20212;-88
2023/10/21 00:34:11;;;;;;;0.40;0.40;;;16.40;66.60;15.30;94172.00;;;;4975182;28;20234;-88
2023/10/21 00:36:38;;;;;;;0.50;0.50;;;16.40;66.70;15.20;94184.00;;;;4975022;28;20227;-88
2023/10/21 00:39:10;;;;;;;0.57;0.40;;;16.30;66.80;15.20;94191.00;;;;4975039;28;20299;-89
2023/10/21 00:41:38;;;;;;;0.40;0.40;;;16.30;66.90;15.20;94197.00;;;;4975292;28;20187;-88
2023/10/21 00:44:05;;;;;;;0.67;0.63;;;16.30;67.20;15.20;94199.00;;;;4975111;28;20584;-88
2023/10/21 00:46:34;;;;;;;0.40;0.40;;;16.30;67.40;15.20;94192.00;;;;4975224;28;20227;-88
2023/10/21 00:49:04;;;;;;;0.40;0.40;;;16.30;67.50;15.20;94203.00;;;;4974689;28;20234;-88
2023/10/21 00:51:32;;;;;;;0.40;0.40;;;16.20;67.60;15.20;94199.00;;;;4975199;28;20362;-88
2023/10/21 00:54:02;;;;;;;0.40;0.40;;;16.20;67.80;15.20;94202.00;;;;4975016;28;20219;-88
2023/10/21 00:56:29;;;;;;;0.40;0.40;;;16.20;67.90;15.20;94212.00;;;;4974700;28;20242;-87
2023/10/21 00:58:57;;;;;;;0.70;0.70;;;16.20;68.00;15.20;94218.00;;;;4974841;28;20203;-88
2023/10/21 01:01:24;;;;;;;0.70;0.60;;;16.20;68.20;15.20;94221.00;;;;4974855;28;20688;-87
2023/10/21 01:03:53;;;;;;;0.80;0.80;;;16.20;68.20;15.20;94227.00;;;;4977491;28;20219;-88
2023/10/21 01:06:20;;;;;;;0.97;0.60;;;16.20;68.40;15.20;94223.00;;;;4977353;28;20246;-88
2023/10/21 01:08:47;;;;;;;1.33;0.70;;;16.20;68.40;15.20;94227.00;;;;4978473;28;20238;-88
2023/10/21 01:11:15;;;;;;;0.60;0.60;;;16.20;68.40;15.20;94235.00;;;;4978210;28;20199;-88
2023/10/21 01:13:44;;;;;;;0.67;0.60;;;16.20;68.40;15.20;94238.00;;;;4978398;28;20321;-88
2023/10/21 01:16:11;;;;;;;0.40;0.40;;;16.20;68.40;15.10;94236.00;;;;4979106;28;20238;-88
2023/10/21 01:18:40;;;;;;;0.50;0.50;;;16.20;68.30;15.10;94231.00;;;;4979030;28;20261;-88
2023/10/21 01:21:09;;;;;;;0.50;0.50;;;16.20;68.30;15.10;94236.00;;;;4978904;28;20203;-89
2023/10/21 01:23:39;;;;;;;0.63;0.50;;;16.20;68.20;15.10;94244.00;;;;4978572;28;20231;-88
2023/10/21 01:26:07;;;;;;;0.40;0.40;;;16.20;68.20;15.10;94248.00;;;;4978507;28;20214;-88
2023/10/21 01:28:35;;;;;;;0.67;0.53;;;16.20;68.10;15.10;94254.00;;;;4978239;28;20203;-88
2023/10/21 01:31:02;;;;;;;0.40;0.40;;;16.10;68.00;15.00;94255.00;;;;4978493;28;20676;-88
2023/10/21 01:33:30;;;;;;;0.97;0.40;;;16.10;68.00;15.00;94254.00;;;;4978036;28;20216;-88
2023/10/21 01:35:57;;;;;;;0.50;0.50;;;16.10;67.90;15.00;94259.00;;;;4978218;28;20207;-88
2023/10/21 01:38:24;;;;;;;0.40;0.40;;;16.10;67.90;15.00;94261.00;;;;4978067;28;20570;-88
2023/10/21 01:40:56;;;;;;;0.60;0.50;;;16.10;67.90;14.90;94262.00;;;;4978047;28;20207;-89
2023/10/21 01:43:23;;;;;;;1.30;0.40;;;16.00;67.80;14.90;94261.00;;;;4977835;28;20252;-88
2023/10/21 01:45:50;;;;;;;1.97;0.50;;;16.00;67.80;14.90;94260.00;;;;4978245;28;20199;-89
2023/10/21 01:48:18;;;;;;;0.37;0.37;;;16.00;67.90;14.90;94263.00;;;;4978076;28;20207;-88
2023/10/21 01:50:45;;;;;;;0.47;0.43;;;16.00;68.00;14.80;94266.00;;;;4977876;28;20227;-88
2023/10/21 01:53:13;;;;;;;0.47;0.47;;;16.00;68.00;14.80;94271.00;;;;4978281;28;20786;-89
2023/10/21 01:55:42;;;;;;;0.90;0.43;;;15.90;68.00;14.80;94278.00;;;;4978148;28;20695;-89
2023/10/21 01:58:10;;;;;;;0.50;0.50;;;15.90;68.10;14.80;94282.00;;;;4978245;28;20227;-88
2023/10/21 02:00:37;;;;;;;1.97;0.53;;;15.90;68.20;14.80;94279.00;;;;4977797;28;20291;-88
2023/10/21 02:03:05;;;;;;;0.40;0.40;;;15.90;68.80;14.70;94292.00;;;;4977087;28;20298;-88
2023/10/21 02:05:32;;;;;;;0.97;0.60;;;15.80;68.00;14.70;94295.00;;;;4977122;28;20203;-87
2023/10/21 02:07:59;;;;;;;0.80;0.80;;;15.80;68.00;14.70;94298.00;;;;4977820;28;20211;-88
2023/10/21 02:10:26;;;;;;;0.83;0.57;;;15.80;68.00;14.70;94303.00;;;;4978056;28;20753;-88
2023/10/21 02:12:54;;;;;;;0.77;0.67;;;15.80;68.00;14.70;94312.00;;;;4978457;28;20227;-88
2023/10/21 02:15:22;;;;;;;0.57;0.57;;;15.80;68.10;14.60;94310.00;;;;4978116;28;20712;-88
2023/10/21 02:17:49;;;;;;;1.20;0.40;;;15.80;68.20;14.60;94312.00;;;;4977219;28;20257;-89
2023/10/21 02:20:16;;;;;;;0.63;0.63;;;15.70;68.20;14.60;94314.00;;;;4977476;28;20211;-89
2023/10/21 02:22:44;;;;;;;1.10;0.50;;;15.70;68.20;14.60;94315.00;;;;4977534;28;20244;-89
2023/10/21 02:25:13;;;;;;;0.80;0.80;;;15.70;68.10;14.60;94315.00;;;;4977959;28;20231;-89
2023/10/21 02:27:41;;;;;;;0.50;0.50;;;15.70;68.80;14.50;94326.00;;;;4977232;28;20719;-89
2023/10/21 02:30:12;;;;;;;0.60;0.53;;;15.70;68.10;14.50;94330.00;;;;4977375;28;20270;-88
2023/10/21 02:32:44;;;;;;;0.70;0.50;;;15.60;68.00;14.50;94336.00;;;;4977561;28;20227;-88
2023/10/21 02:35:12;;;;;;;1.33;0.60;;;15.60;68.10;14.50;94341.00;;;;4977706;28;20652;-88
2023/10/21 02:37:40;;;;;;;0.50;0.50;;;15.60;68.10;14.40;94348.00;;;;4977588;28;20633;-88
2023/10/21 02:40:09;;;;;;;0.77;0.77;;;15.60;68.00;14.40;94344.00;;;;4977103;28;20208;-89
2023/10/21 02:42:37;;;;;;;0.53;0.50;;;15.60;67.90;14.40;94359.00;;;;4976999;28;20219;-88
2023/10/21 02:45:06;;;;;;;0.50;0.50;;;15.50;67.80;14.30;94352.00;;;;4976134;28;20210;-88
2023/10/21 02:47:34;;;;;;;0.50;0.50;;;15.50;67.90;14.30;94357.00;;;;4976568;28;20199;-88
2023/10/21 02:50:03;;;;;;;0.50;0.40;;;15.50;67.90;14.30;94372.00;;;;4976154;28;20719;-88
2023/10/21 02:52:30;;;;;;;0.40;0.40;;;15.40;68.00;14.30;94371.00;;;;4976239;28;20684;-88
2023/10/21 02:54:57;;;;;;;0.60;0.60;;;15.40;68.80;14.30;94380.00;;;;4975977;28;20215;-87
2023/10/21 02:57:25;;;;;;;0.53;0.40;;;15.40;68.10;14.20;94389.00;;;;4976979;28;20648;-87
2023/10/21 02:59:52;;;;;;;0.50;0.50;;;15.40;68.20;14.20;94388.00;;;;4976319;28;20262;-89
2023/10/21 03:02:19;;;;;;;0.60;0.60;;;15.40;68.20;14.20;94394.00;;;;4975525;28;20286;-89
2023/10/21 03:04:47;;;;;;;0.57;0.40;;;15.30;68.30;14.20;94382.00;;;;4975516;28;20203;-88
2023/10/21 03:07:15;;;;;;;0.50;0.50;;;15.30;68.40;14.20;94391.00;;;;4975949;28;20290;-88
2023/10/21 03:09:43;;;;;;;1.20;0.60;;;15.30;68.70;14.20;94391.00;;;;4976039;28;20707;-87
2023/10/21 03:12:10;;;;;;;1.23;0.60;;;15.30;68.90;14.20;94394.00;;;;4976079;28;20258;-87
2023/10/21 03:14:38;;;;;;;1.33;0.50;;;15.30;69.10;14.20;94405.00;;;;4975985;28;20282;-88
2023/10/21 03:17:05;;;;;;;0.57;0.57;;;15.30;69.20;14.20;94416.00;;;;4976222;28;20258;-88
2023/10/21 03:19:32;;;;;;;0.50;0.50;;;15.30;69.30;14.20;94405.00;;;;4976220;28;20227;-88
2023/10/21 03:22:00;;;;;;;0.60;0.60;;;15.30;69.30;14.20;94415.00;;;;4976554;28;20238;-88
2023/10/21 03:24:28;;;;;;;1.50;0.70;;;15.30;69.40;14.20;94418.00;;;;4976829;28;20242;-88
2023/10/21 03:26:56;;;;;;;1.40;0.63;;;15.30;69.30;14.20;94420.00;;;;4976090;28;20243;-88
2023/10/21 03:29:23;;;;;;;0.73;0.70;;;15.30;69.40;14.20;94433.00;;;;4976384;28;20207;-88
2023/10/21 03:31:50;;;;;;;0.63;0.63;;;15.30;69.50;14.20;94435.00;;;;4976564;28;20613;-89
2023/10/21 03:34:17;;;;;;;0.60;0.60;;;15.30;69.50;14.30;94444.00;;;;4976129;28;20227;-88
2023/10/21 03:36:45;;;;;;;0.40;0.40;;;15.30;69.60;14.30;94439.00;;;;4976471;28;20261;-88
2023/10/21 03:39:13;;;;;;;0.60;0.60;;;15.40;69.70;14.30;94441.00;;;;4976603;28;20199;-87
2023/10/21 03:41:42;;;;;;;0.93;0.77;;;15.40;69.80;14.30;94436.00;;;;4976436;28;20624;-87
2023/10/21 03:44:09;;;;;;;0.43;0.40;;;15.40;69.90;14.30;94446.00;;;;4975859;28;20223;-88
2023/10/21 03:46:36;;;;;;;0.70;0.70;;;15.40;69.80;14.30;94448.00;;;;4975879;28;20199;-88
2023/10/21 03:49:04;;;;;;;0.57;0.50;;;15.40;69.80;14.30;94445.00;;;;4976187;28;21042;-88
2023/10/21 03:51:31;;;;;;;0.50;0.50;;;15.40;69.80;14.30;94455.00;;;;4976730;28;20203;-88
2023/10/21 03:53:59;;;;;;;0.60;0.60;;;15.40;69.80;14.30;94469.00;;;;4975907;28;20219;-88
2023/10/21 03:56:26;;;;;;;1.07;0.70;;;15.40;69.80;14.30;94463.00;;;;4975464;28;20207;-88
2023/10/21 03:58:55;;;;;;;0.70;0.70;;;15.40;69.70;14.30;94469.00;;;;4982861;28;20201;-83
2023/10/21 04:01:22;;;;;;;1.00;0.80;;;15.40;69.70;14.30;94475.00;;;;4990303;28;20265;-84
2023/10/21 04:03:49;;;;;;;0.77;0.60;;;15.40;69.60;14.30;94480.00;;;;4998895;28;20238;-84
2023/10/21 04:06:17;;;;;;;2.03;0.90;;;15.40;69.60;14.30;94485.00;;;;4994261;28;20225;-83
2023/10/21 04:08:46;;;;;;;1.20;1.20;;;15.40;69.50;14.30;94489.00;;;;4986855;28;20231;-83
2023/10/21 04:11:20;;;;;;;1.60;1.30;;;15.40;69.60;14.20;94488.00;;;;4990791;28;20207;-83
2023/10/21 04:13:47;;;;;;;1.43;1.33;;;15.40;69.70;14.30;94500.00;;;;4999682;28;20219;-84
2023/10/21 04:16:33;;;;;;;1.13;1.07;;;15.40;69.70;14.30;94510.00;;;;4993224;28;20213;-84
2023/10/21 04:19:00;;;;;;;1.23;1.13;;;15.40;70.00;14.20;94509.00;;;;4994075;28;20191;-82
2023/10/21 04:21:34;;;;;;;1.00;1.00;;;15.40;69.80;14.20;94521.00;;;;4998421;28;20578;-84
2023/10/21 04:24:09;;;;;;;0.87;0.87;;;15.40;69.90;14.20;94522.00;;;;4989148;28;20222;-83
2023/10/21 04:26:44;;;;;;;1.30;1.20;;;15.40;70.00;14.20;94540.00;;;;4995879;28;20196;-84
2023/10/21 04:29:22;;;;;;;0.90;0.90;;;15.30;70.20;14.20;94536.00;;;;4990727;28;20264;-84
2023/10/21 04:32:24;;;;;;;1.23;1.00;;;15.40;70.30;14.20;94547.00;;;;4994582;28;20202;-84
2023/10/21 04:34:59;;;;;;;1.20;1.10;;;15.40;70.60;14.30;94546.00;;;;4993863;28;20202;-84
2023/10/21 04:37:32;;;;;;;1.60;1.50;;;15.40;70.40;14.30;94552.00;;;;4993833;28;20745;-84
2023/10/21 04:40:11;;;;;;;1.67;1.50;;;15.40;70.50;14.30;94555.00;;;;5003888;28;20612;-83
2023/10/21 04:42:50;;;;;;;1.97;1.87;;;15.40;70.70;14.40;94558.00;;;;4994038;28;20214;-83
2023/10/21 04:45:28;;;;;;;1.80;1.70;;;15.40;70.70;14.40;94563.00;;;;4994677;28;20257;-84
2023/10/21 04:48:19;;;;;;;1.50;1.40;;;15.40;70.80;14.40;94568.00;;;;5002138;28;20233;-84
2023/10/21 04:50:51;;;;;;;3.83;1.67;;;15.50;71.00;14.50;94572.00;;;;5011020;28;20560;-84
2023/10/21 04:53:23;;;;;;;1.60;1.50;;;15.50;71.00;14.50;94573.00;;;;5001838;28;20233;-83
2023/10/21 04:56:05;;;;;;;1.53;1.43;;;15.50;71.00;14.50;94576.00;;;;5004523;28;20194;-84
2023/10/21 04:58:44;;;;;;;1.63;1.53;;;15.60;71.30;14.60;94572.00;;;;4996131;28;20287;-86
2023/10/21 05:01:26;;;;;;;2.17;1.97;;;15.60;71.30;14.60;94581.00;;;;5001242;28;20225;-84
2023/10/21 05:04:07;;;;;;;1.53;1.43;;;15.70;71.40;14.60;94583.00;;;;5007545;28;20698;-85
2023/10/21 05:06:43;;;;;;;1.87;1.20;;;15.70;72.10;14.70;94589.00;;;;4993956;28;20729;-84
2023/10/21 05:09:22;;;;;;;1.50;1.40;;;15.70;71.20;14.70;94593.00;;;;5003754;28;20207;-85
2023/10/21 05:11:49;;;;;;;2.07;1.60;;;15.70;71.10;14.70;94606.00;;;;4992613;28;20195;-84
2023/10/21 05:17:27;;;;;;;1.53;1.43;;;15.80;71.30;14.80;94608.00;;;;4996551;28;20215;-85
2023/10/21 05:20:07;;;;;;;1.50;1.40;;;15.80;71.20;14.80;94621.00;;;;5002176;28;20202;-85
2023/10/21 05:22:46;;;;;;;1.40;1.30;;;15.80;71.30;14.80;94620.00;;;;4997025;28;20252;-84
2023/10/21 05:25:26;;;;;;;1.57;1.47;;;15.90;71.30;14.90;94623.00;;;;5002395;28;20671;-84
2023/10/21 05:28:00;;;;;;;1.40;1.30;;;15.90;71.20;14.90;94628.00;;;;5007583;28;20209;-85
2023/10/21 05:30:34;;;;;;;1.97;1.77;;;15.90;71.30;14.90;94635.00;;;;5000492;28;20233;-85
2023/10/21 05:33:04;;;;;;;1.40;1.30;;;16.00;71.30;15.00;94642.00;;;;5001256;28;20691;-85
2023/10/21 05:35:40;;;;;;;1.50;1.40;;;16.00;71.30;15.00;94642.00;;;;5005120;28;20683;-85
2023/10/21 05:38:13;;;;;;;1.63;1.53;;;16.00;71.20;15.00;94647.00;;;;5001844;28;20218;-85
2023/10/21 05:40:58;;;;;;;1.50;1.40;;;16.00;71.10;15.00;94649.00;;;;5000928;28;20190;-85
2023/10/21 05:43:52;;;;;;;1.50;1.40;;;16.00;71.10;15.00;94652.00;;;;5001128;28;20717;-85
2023/10/21 05:46:24;;;;;;;1.60;1.50;;;16.00;71.10;15.00;94658.00;;;;5010814;28;20573;-85
2023/10/21 05:48:57;;;;;;;1.53;1.43;;;16.10;71.60;15.00;94663.00;;;;4996849;28;20199;-85
2023/10/21 05:51:29;;;;;;;1.50;1.40;;;16.10;70.80;15.00;94666.00;;;;5000607;28;20447;-85
2023/10/21 05:54:00;;;;;;;1.70;1.60;;;16.10;70.70;15.00;94669.00;;;;5001889;28;20325;-85
2023/10/21 05:56:33;;;;;;;1.20;1.20;;;16.10;70.70;15.00;94678.00;;;;5008558;28;20222;-85
2023/10/21 05:59:06;;;;;;;1.80;1.50;;;16.10;70.70;15.00;94683.00;;;;4999874;28;20688;-85
2023/10/21 06:01:48;;;;;;;1.40;1.30;;;16.10;70.80;15.00;94700.00;;;;5004724;28;20230;-85
2023/10/21 06:04:18;;;;;;;1.40;1.30;;;16.10;70.80;15.10;94703.00;;;;5006992;28;20336;-85
2023/10/21 06:06:49;;;;;;;1.30;1.10;;;16.10;70.90;15.10;94715.00;;;;4999084;28;20205;-85
2023/10/21 06:09:17;;;;;;;1.17;1.17;;;16.10;71.00;15.10;94723.00;;;;4995422;28;20567;-84
2023/10/21 06:11:46;;;;;;;1.33;1.13;;;16.10;71.00;15.10;94728.00;;;;5000866;28;21071;-85
2023/10/21 06:14:13;;;;;;;1.50;1.40;;;16.10;71.10;15.10;94734.00;;;;4997153;28;20609;-83
2023/10/21 06:16:40;;;;;;;1.40;1.30;;;16.10;71.20;15.10;94750.00;;;;5001266;28;20233;-84
2023/10/21 06:19:09;;;;;;;1.50;1.40;;;16.10;71.20;15.10;94756.00;;;;5002352;28;20222;-86
2023/10/21 06:21:40;;;;;;;3.00;2.20;;;16.10;71.30;15.10;94754.00;;;;5005110;28;20203;-85
2023/10/21 06:24:10;;;;;;;2.37;1.47;;;16.20;71.20;15.20;94758.00;;;;4994884;28;20695;-85
2023/10/21 06:26:38;;;;;;;2.60;1.60;;;16.20;71.20;15.20;94766.00;;;;5001089;28;20248;-85
2023/10/21 06:29:06;;;;;;;2.73;1.83;;;16.20;71.20;15.20;94764.00;;;;4996761;28;20281;-81
2023/10/21 06:31:36;;;;;;;1.90;1.50;;;16.20;71.20;15.30;94776.00;;;;4996530;28;20191;-83
2023/10/21 06:34:03;;;;;;;1.80;1.33;;;16.10;71.40;15.30;94786.00;;;;5002349;28;20670;-81
2023/10/21 06:36:40;;;;;;;1.37;1.27;;;16.30;71.60;15.40;94782.00;;;;4996851;28;20230;-81
2023/10/21 06:39:21;;;;;;;1.20;1.10;;;16.30;71.60;15.40;94781.00;;;;4993940;28;20747;-83
2023/10/21 06:41:50;;;;;;;2.60;1.27;;;16.40;71.70;15.50;94785.00;;;;4997870;28;20225;-82
2023/10/21 06:44:18;;;;;;;1.63;1.33;;;16.40;71.60;15.50;94780.00;;;;4997691;28;20214;-82
2023/10/21 06:46:46;;;;;;;1.00;1.00;;;16.50;71.60;15.60;94782.00;;;;5003528;28;20253;-84
2023/10/21 06:49:14;;;;;;;1.53;1.43;;;16.50;71.60;15.70;94788.00;;;;5005536;28;20217;-81
2023/10/21 06:51:41;;;;;;;1.83;1.33;;;16.60;71.50;15.70;94794.00;;;;5001479;28;20269;-82
2023/10/21 06:54:10;;;;;;;1.20;1.20;;;16.60;71.50;15.80;94804.00;;;;4994166;28;20215;-83
2023/10/21 06:56:38;;;;;;;1.20;1.10;;;16.70;71.50;15.80;94816.00;;;;5005513;28;20237;-82
2023/10/21 06:59:06;;;;;;;1.20;1.10;;;16.70;71.30;15.80;94819.00;;;;4999189;28;20247;-83
2023/10/21 07:01:34;;;;;;;1.20;1.10;;;16.70;71.20;15.90;94828.00;;;;4999657;28;20265;-84
2023/10/21 07:04:01;;;;;;;1.20;0.90;;;16.80;71.30;15.90;94834.00;;;;5001618;28;20653;-84
2023/10/21 07:06:29;;;;;;;0.77;0.77;;;16.80;71.30;16.00;94843.00;;;;5001639;28;20282;-84
2023/10/21 07:08:56;;;;;;;1.43;0.93;;;16.90;71.30;16.00;94844.00;;;;4991512;28;20196;-83
2023/10/21 07:11:24;;;;;;;0.73;0.73;;;16.90;71.20;16.00;94851.00;;;;5002202;28;20699;-85
2023/10/21 07:13:52;;;;;;;1.17;1.07;;;17.00;71.20;16.00;94859.00;;;;4993051;28;20691;-84
2023/10/21 07:16:20;;;;;;;1.40;1.30;;;17.00;71.10;16.10;94866.00;;;;4996126;28;20242;-84
2023/10/21 07:18:48;;;;;;;1.37;1.27;;;17.00;71.10;16.10;94864.00;;;;4998058;28;20652;-84
2023/10/21 07:21:16;;;;;;;1.10;1.00;;;17.10;71.10;16.10;94878.00;;;;5003786;28;20210;-83
2023/10/21 07:23:49;;;;;;;1.40;1.30;;;17.10;71.00;16.20;94876.00;;;;5008925;28;20276;-85
2023/10/21 07:26:16;;;;;;;1.40;1.30;;;17.10;71.00;16.20;94875.00;;;;5009150;28;20217;-83
2023/10/21 07:28:44;;;;;;;1.30;1.20;;;17.20;71.00;16.20;94877.00;;;;5003032;28;20206;-85
2023/10/21 07:31:27;;;;;;;1.23;1.10;;;17.20;71.00;16.30;94880.00;;;;5006452;28;20203;-85
2023/10/21 07:34:23;;;;;;;1.40;1.27;;;17.20;71.20;16.30;94883.00;;;;4995395;28;20227;-85
2023/10/21 07:36:59;;;;;;;1.27;1.17;;;17.30;71.10;16.40;94885.00;;;;4999609;28;20547;-83
2023/10/21 07:39:46;;;;;;;1.40;1.30;;;17.40;71.10;16.40;94879.00;;;;4994942;28;20227;-83
2023/10/21 07:42:14;;;;;;;1.20;1.10;;;17.40;71.10;16.50;94890.00;;;;5004709;28;20289;-83
2023/10/21 07:44:42;;;;;;;1.20;0.80;;;17.40;71.00;16.50;94893.00;;;;5003696;28;20260;-84
2023/10/21 07:47:33;;;;;;;1.57;0.90;;;17.50;71.10;16.60;94903.00;;;;4997485;28;20686;-84
2023/10/21 07:50:07;;;;;;;1.00;0.63;;;17.50;71.00;16.70;94899.00;;;;5001240;28;20190;-84
2023/10/21 07:52:50;;;;;;;1.07;0.97;;;17.60;71.10;16.70;94892.00;;;;4994834;28;20643;-83
2023/10/21 07:55:41;;;;;;;0.90;0.80;;;17.60;71.20;16.80;94903.00;;;;5005118;28;20244;-83
2023/10/21 07:58:22;;;;;;;2.40;1.03;;;17.70;71.30;16.80;94908.00;;;;4999965;28;20226;-82
2023/10/21 08:01:10;;;;;;;0.70;0.67;;;17.80;71.50;17.00;94903.00;;;;5000335;28;20211;-83
2023/10/21 08:03:39;;;;;;;0.93;0.80;;;17.80;71.40;17.10;94909.00;;;;4994411;28;20633;-83
2023/10/21 08:06:15;;;;;;;0.70;0.70;;;17.90;71.40;17.10;94915.00;;;;4994860;28;20566;-83
2023/10/21 08:08:46;;;;;;;1.00;0.80;;;18.00;71.40;17.20;94916.00;;;;4994782;28;20751;-82
2023/10/21 08:11:21;;;;;;;1.70;0.80;;;18.10;71.20;17.30;94910.00;;;;4995587;28;20209;-82
2023/10/21 08:13:55;;;;;;;0.80;0.73;;;18.10;71.20;17.40;94922.00;;;;5008078;28;20271;-82
2023/10/21 08:16:22;;;;;;;0.87;0.63;;;18.30;71.30;17.60;94922.00;;;;4992746;28;20203;-81
2023/10/21 08:18:50;;;;;;;0.50;0.50;;;18.40;71.40;17.70;94927.00;;;;4996436;28;20305;-82
2023/10/21 08:21:18;;;;;;;1.07;0.73;;;18.50;71.70;17.80;94931.00;;;;4996813;28;20237;-82
2023/10/21 08:23:48;;;;;;;1.63;0.73;;;18.60;71.90;18.00;94942.00;;;;4997734;28;20668;-82
2023/10/21 08:26:15;;;;;;;0.50;0.50;;;18.70;72.00;18.10;94932.00;;;;4997531;28;20640;-82
2023/10/21 08:28:46;;;;;;;0.47;0.40;;;18.80;72.10;18.20;94936.00;;;;4997355;28;20253;-82
2023/10/21 08:31:13;;;;;;;0.60;0.50;;;18.90;71.80;18.40;94947.00;;;;4996656;28;20202;-82
2023/10/21 08:33:46;;;;;;;0.80;0.40;;;19.00;71.60;18.40;94950.00;;;;5004005;28;20253;-82
2023/10/21 08:36:30;;;;;;;0.30;0.20;;;19.10;71.50;18.50;94957.00;;;;4996890;28;20261;-82
2023/10/21 08:39:11;;;;;;;0.37;0.30;;;19.20;70.50;18.60;94958.00;;;;4997158;28;20843;-82
2023/10/21 08:41:47;;;;;;;0.20;0.20;;;19.30;70.50;18.70;94958.00;;;;4997282;28;20218;-82
2023/10/21 08:44:25;;;;;;;0.20;0.20;;;19.40;70.90;18.80;94949.00;;;;5001001;28;20247;-82
2023/10/21 08:47:01;;;;;;;0.10;0.10;;;19.50;70.80;19.00;94956.00;;;;4995071;28;20208;-82
2023/10/21 08:49:42;;;;;;;0.80;0.57;;;19.60;70.60;19.10;94955.00;;;;4991715;28;20186;-83
2023/10/21 08:52:15;;;;;;;0.30;0.30;;;19.70;70.20;19.20;94958.00;;;;4994267;28;20202;-82
2023/10/21 08:54:47;;;;;;;0.20;0.20;;;19.80;69.60;19.30;94964.00;;;;4995822;28;20237;-82
2023/10/21 08:57:26;;;;;;;0.30;0.20;;;19.90;69.80;19.40;94961.00;;;;5001518;28;20295;-82
2023/10/21 08:59:58;;;;;;;0.73;0.43;;;20.00;69.30;19.40;94969.00;;;;4993748;28;20687;-83
2023/10/21 09:02:31;;;;;;;0.57;0.30;;;20.10;68.80;19.50;94970.00;;;;4991003;28;20214;-82
2023/10/21 09:05:12;;;;;;;0.30;0.27;;;20.20;68.20;19.60;94977.00;;;;5001875;28;20203;-82
2023/10/21 09:07:58;;;;;;;0.20;0.20;;;20.30;68.50;19.80;94982.00;;;;4999868;28;20197;-82
2023/10/21 09:10:35;;;;;;;0.20;0.20;;;20.40;67.90;19.90;94987.00;;;;5003262;28;20222;-82
2023/10/21 09:13:19;;;;;;;0.30;0.10;;;20.50;68.10;20.00;95002.00;;;;4998245;28;20596;-81
2023/10/21 09:16:00;;;;;;;0.10;0.10;;;20.60;68.20;20.10;95006.00;;;;4997878;28;20195;-81
2023/10/21 09:18:38;;;;;;;0.13;0.10;;;20.70;67.70;20.10;95001.00;;;;5000191;28;20222;-81
2023/10/21 09:21:11;;;;;;;0.57;0.40;;;20.80;67.00;20.20;95011.00;;;;4993664;28;20727;-82
2023/10/21 09:23:54;;;;;;;0.30;0.30;;;20.80;66.70;20.30;95003.00;;;;4987412;28;20254;-82
2023/10/21 09:26:47;;;;;;;0.47;0.20;;;20.90;66.10;20.40;95013.00;;;;4992477;28;20226;-82
2023/10/21 09:29:27;;;;;;;4.93;0.40;;;21.00;66.70;20.50;95004.00;;;;4998427;28;20225;-82
2023/10/21 09:31:59;;;;;;;0.60;0.40;;;21.10;66.10;20.60;95013.00;;;;4998709;28;20741;-83
2023/10/21 09:34:40;;;;;;;0.43;0.30;;;21.20;65.60;20.60;95012.00;;;;4997004;28;20205;-82
2023/10/21 09:37:15;;;;;;;0.30;0.30;;;21.20;65.80;20.80;95024.00;;;;4997481;28;20202;-83
2023/10/21 09:39:55;;;;;;;0.40;0.20;;;21.30;65.60;20.90;95021.00;;;;4994980;28;20212;-82
2023/10/21 09:42:33;;;;;;;0.50;0.27;;;21.40;65.10;21.00;95040.00;;;;4998544;28;20690;-82
2023/10/21 09:45:13;;;;;;;0.00;0.00;;;21.50;64.90;21.00;95031.00;;;;5004916;28;20262;-83
2023/10/21 09:47:51;;;;;;;0.20;0.20;;;21.60;64.00;21.10;95034.00;;;;4999457;28;20206;-83
2023/10/21 09:50:28;;;;;;;0.20;0.10;;;21.70;63.40;21.10;95039.00;;;;5007684;28;20223;-82
2023/10/21 09:53:07;;;;;;;0.97;0.10;;;21.70;62.70;21.10;95038.00;;;;5003017;28;20302;-82
2023/10/21 09:55:48;;;;;;;0.10;0.10;;;21.80;62.40;21.20;95037.00;;;;4999057;28;20217;-83
2023/10/21 09:58:31;;;;;;;0.40;0.10;;;21.80;61.70;21.20;95036.00;;;;5001475;28;21063;-82
2023/10/21 10:01:02;;;;;;;0.20;0.20;;;21.80;62.00;21.20;95030.00;;;;4988628;28;20215;-81
2023/10/21 10:03:39;;;;;;;0.20;0.10;;;21.80;62.30;21.30;95036.00;;;;5009553;28;20238;-82
2023/10/21 10:06:10;;;;;;;0.40;0.20;;;21.90;62.50;21.40;95038.00;;;;4997580;28;20626;-82
2023/10/21 10:08:41;;;;;;;0.10;0.10;;;21.90;62.40;21.50;95038.00;;;;4996287;28;20257;-83
2023/10/21 10:11:18;;;;;;;0.00;0.00;;;22.00;61.90;21.50;95030.00;;;;5002657;28;20199;-82
2023/10/21 10:13:49;;;;;;;0.10;0.10;;;22.10;61.50;21.60;95037.00;;;;4997435;28;20272;-82
2023/10/21 10:16:22;;;;;;;0.10;0.10;;;22.10;61.10;21.70;95044.00;;;;4997856;28;20195;-83
2023/10/21 10:18:56;;;;;;;0.10;0.10;;;22.20;60.10;21.80;95039.00;;;;4997627;28;20640;-82
2023/10/21 10:21:42;;;;;;;0.20;0.20;;;22.30;60.20;21.90;95034.00;;;;4990323;28;20199;-83
2023/10/21 10:24:10;;;;;;;0.10;0.10;;;22.40;58.80;21.90;95036.00;;;;4993329;28;20261;-83
2023/10/21 10:26:40;;;;;;;0.00;0.00;;;22.40;59.00;22.00;95039.00;;;;4986808;28;20286;-81
2023/10/21 10:29:25;;;;;;;0.50;0.10;;;22.50;58.90;22.10;95044.00;;;;4995007;28;20215;-85
2023/10/21 10:32:14;;;;;;;0.00;0.00;;;22.60;58.40;22.20;95039.00;;;;4997336;28;20293;-84
2023/10/21 10:34:57;;;;;;;0.00;0.00;;;22.70;58.20;22.30;95036.00;;;;4995292;28;20203;-84
2023/10/21 10:37:32;;;;;;;0.50;0.00;;;22.70;57.70;22.30;95044.00;;;;4995128;28;20424;-83
2023/10/21 10:40:18;;;;;;;0.07;0.00;;;22.80;57.80;22.40;95036.00;;;;5002012;28;20282;-84
2023/10/21 10:43:03;;;;;;;0.03;0.00;;;22.80;58.20;22.40;95031.00;;;;4997681;28;20231;-83
2023/10/21 10:45:37;;;;;;;0.00;0.00;;;22.90;58.10;22.40;95040.00;;;;4995064;28;20195;-83
2023/10/21 10:48:12;;;;;;;0.10;0.10;;;22.90;57.20;22.40;95035.00;;;;4995946;28;20211;-85
2023/10/21 10:50:43;;;;;;;0.00;0.00;;;22.90;57.50;22.40;95036.00;;;;5001005;28;20306;-82
2023/10/21 10:53:19;;;;;;;0.00;0.00;;;22.90;57.80;22.40;95026.00;;;;4987143;28;20223;-83
2023/10/21 10:55:55;;;;;;;0.00;0.00;;;22.90;57.40;22.40;95019.00;;;;4996032;28;20553;-83
2023/10/21 10:58:32;;;;;;;0.10;0.10;;;22.90;57.50;22.40;95021.00;;;;5005936;28;20233;-85
2023/10/21 11:01:09;;;;;;;0.13;0.00;;;22.90;56.80;22.40;95031.00;;;;5014570;28;20235;-84
2023/10/21 11:06:27;;;;;;;0.00;0.00;;;22.90;57.40;22.40;95029.00;;;;4995240;28;20202;-86
2023/10/21 11:09:07;;;;;;;0.37;0.00;;;22.90;57.70;22.40;95042.00;;;;4995453;28;20206;-86
2023/10/21 11:11:54;;;;;;;0.20;0.00;;;22.90;57.50;22.40;95043.00;;;;4988016;28;20838;-87
2023/10/21 11:14:30;;;;;;;0.27;0.27;;;23.00;56.50;22.40;95039.00;;;;4989045;28;20932;-86
2023/10/21 11:17:05;;;;;;;0.50;0.03;;;23.00;56.40;22.40;95038.00;;;;4995465;28;20207;-82
2023/10/21 11:19:40;;;;;;;0.30;0.30;;;23.00;56.40;22.50;95045.00;;;;4995730;28;20226;-81
2023/10/21 11:22:31;;;;;;;0.57;0.00;;;23.00;56.70;22.40;95040.00;;;;4995328;28;20204;-83
2023/10/21 11:25:05;;;;;;;2.13;0.10;;;23.00;55.20;22.40;95042.00;;;;4992824;28;20292;-83